Time;durP1;ratioP1;P1;durP2;ratioP2;P2;SDS_P1;SDS_P2;PMS_P1;PMS_P2;Temp;Humidity;BMP_temperature;BMP_pressure;BME280_temperature;BME280_humidity;BME280_pressure;Samples;Min_cycle;Max_cycle;Signal;HPM_P1;HPM_P2
2022/04/06 00:00:06;;;;;;;12.70;5.55;;;;;;;3.18;68.59;99559.64;1817247;77;21095;-89
2022/04/06 00:02:37;;;;;;;12.80;6.33;;;;;;;3.31;68.60;99561.83;1831591;77;21518;-89
2022/04/06 00:05:09;;;;;;;10.58;5.60;;;;;;;3.43;68.57;99562.66;1804050;79;21681;-89
2022/04/06 00:07:37;;;;;;;24.25;12.70;;;;;;;3.52;68.53;99558.20;1850193;77;21023;-89
2022/04/06 00:10:05;;;;;;;14.63;7.17;;;;;;;3.64;68.57;99569.43;1810358;79;21026;-89
2022/04/06 00:12:31;;;;;;;26.73;10.95;;;;;;;3.63;68.50;99546.86;1768537;80;21744;-89
2022/04/06 00:15:00;;;;;;;10.43;5.45;;;;;;;3.82;68.48;99583.06;1820952;78;21758;-88
2022/04/06 00:17:27;;;;;;;8.15;4.05;;;;;;;3.87;68.46;99575.42;1842567;76;21308;-89
2022/04/06 00:19:53;;;;;;;6.22;4.00;;;;;;;3.85;68.29;99579.27;1837780;77;20994;-88
2022/04/06 00:22:20;;;;;;;5.83;2.25;;;;;;;3.79;68.17;99573.87;1844762;77;21039;-88
2022/04/06 00:24:53;;;;;;;5.12;1.57;;;;;;;3.71;68.02;99562.30;1821007;78;21017;-88
2022/04/06 00:27:20;;;;;;;2.70;1.87;;;;;;;3.59;67.81;99569.29;1820135;77;22578;-78
2022/04/06 00:29:48;;;;;;;4.60;2.12;;;;;;;3.53;67.80;99565.19;1837717;77;21080;-78
2022/04/06 00:32:15;;;;;;;2.27;1.90;;;;;;;3.48;67.95;99568.04;1835430;77;21042;-87
2022/04/06 00:37:27;;;;;;;5.65;2.05;;;;;;;3.44;68.23;99565.75;1853957;77;21086;-79
2022/04/06 00:39:53;;;;;;;10.93;3.50;;;;;;;3.43;68.30;99569.16;1829656;77;22576;-88
2022/04/06 00:42:20;;;;;;;3.87;2.35;;;;;;;3.42;68.37;99561.34;1829130;77;21097;-79
2022/04/06 00:44:47;;;;;;;8.18;3.50;;;;;;;3.41;68.35;99561.73;1851196;77;21543;-79
2022/04/06 00:47:14;;;;;;;8.13;3.40;;;;;;;3.38;68.31;99564.24;1834768;77;21046;-80
2022/04/06 00:49:40;;;;;;;7.90;3.33;;;;;;;3.30;68.27;99557.48;1835892;77;21021;-80
2022/04/06 00:52:08;;;;;;;11.63;4.15;;;;;;;3.24;68.29;99560.27;1836622;77;21790;-80
2022/04/06 00:54:35;;;;;;;10.68;5.17;;;;;;;3.19;68.38;99556.61;1842243;77;21451;-80
2022/04/06 00:57:02;;;;;;;11.10;4.87;;;;;;;3.13;68.47;99557.70;1834148;77;21035;-80
2022/04/06 00:59:29;;;;;;;7.60;4.17;;;;;;;3.08;68.55;99561.45;1845002;77;21647;-80
2022/04/06 01:01:56;;;;;;;14.25;7.50;;;;;;;3.03;68.69;99557.38;1826759;77;21034;-80
2022/04/06 01:04:23;;;;;;;13.45;7.10;;;;;;;3.02;68.83;99575.51;1841801;77;22534;-80
2022/04/06 01:06:51;;;;;;;16.55;9.33;;;;;;;2.97;68.84;99567.56;1860701;77;21026;-80
2022/04/06 01:09:20;;;;;;;12.23;7.65;;;;;;;2.95;68.91;99578.70;1826227;77;21041;-80
2022/04/06 01:11:49;;;;;;;20.48;8.60;;;;;;;2.91;69.00;99576.44;1827222;77;21026;-80
2022/04/06 01:14:16;;;;;;;12.65;9.00;;;;;;;2.88;69.12;99579.80;1852116;77;21280;-89
2022/04/06 01:17:00;;;;;;;34.58;22.50;;;;;;;2.86;69.25;99577.98;1826762;78;21756;-89
2022/04/06 01:19:36;;;;;;;21.17;11.50;;;;;;;2.84;69.34;99588.73;1801979;78;21055;-80
2022/04/06 01:22:17;;;;;;;17.98;10.53;;;;;;;2.77;69.36;99586.30;1825716;77;21002;-89
2022/04/06 01:24:45;;;;;;;17.00;8.70;;;;;;;2.70;69.46;99590.80;1828242;78;21352;-91
2022/04/06 01:27:21;;;;;;;17.45;8.63;;;;;;;2.66;69.60;99585.89;1828625;78;20998;-88
2022/04/06 01:29:48;;;;;;;14.85;8.98;;;;;;;2.67;69.82;99595.47;1848707;77;21866;-88
2022/04/06 01:32:26;;;;;;;9.75;6.17;;;;;;;2.69;70.01;99591.64;1858012;77;21023;-79
2022/04/06 01:34:54;;;;;;;7.42;4.60;;;;;;;2.73;70.08;99598.72;1829882;76;21302;-80
2022/04/06 01:37:21;;;;;;;7.22;3.98;;;;;;;2.78;70.20;99593.68;1820793;77;21281;-81
2022/04/06 01:39:48;;;;;;;7.55;4.20;;;;;;;2.82;70.23;99597.77;1820280;77;21023;-78
2022/04/06 01:42:17;;;;;;;12.35;4.70;;;;;;;2.86;70.31;99594.88;1824406;78;21738;-87
2022/04/06 01:44:47;;;;;;;9.13;4.10;;;;;;;2.92;70.39;99600.28;1823831;77;21053;-78
2022/04/06 01:47:15;;;;;;;7.75;4.37;;;;;;;2.96;70.40;99602.59;1832854;77;21109;-79
2022/04/06 01:52:28;;;;;;;12.53;4.40;;;;;;;3.03;70.47;99598.97;1822981;77;21543;-79
2022/04/06 01:55:01;;;;;;;10.35;4.80;;;;;;;3.08;70.47;99600.03;1823150;77;21742;-79
2022/04/06 01:57:29;;;;;;;;;;;;;;;3.09;70.48;99595.70;1817948;77;21710;-79
2022/04/06 01:59:56;;;;;;;8.78;4.67;;;;;;;3.08;70.40;99603.05;1844890;77;20500;-79
2022/04/06 02:02:24;;;;;;;8.95;4.95;;;;;;;3.02;70.34;99606.70;1831960;75;21065;-89
2022/04/06 02:04:52;;;;;;;10.00;4.40;;;;;;;2.96;70.34;99603.89;1835760;77;21678;-79
2022/04/06 02:07:19;;;;;;;15.50;5.10;;;;;;;2.88;70.34;99606.20;1851598;77;22645;-79
2022/04/06 02:09:45;;;;;;;9.05;4.90;;;;;;;2.82;70.42;99608.16;1834364;77;21046;-88
2022/04/06 02:12:12;;;;;;;11.60;5.00;;;;;;;2.75;70.48;99613.95;1868697;75;21021;-88
2022/04/06 02:14:40;;;;;;;8.58;4.92;;;;;;;2.68;70.51;99616.75;1832197;75;21074;-79
2022/04/06 02:17:07;;;;;;;14.43;5.83;;;;;;;2.61;70.61;99618.63;1851059;75;21050;-80
2022/04/06 02:19:36;;;;;;;11.20;5.42;;;;;;;2.55;70.69;99623.56;1854456;75;21681;-80
2022/04/06 02:22:04;;;;;;;12.10;5.90;;;;;;;2.53;70.93;99623.92;1822913;77;21014;-79
2022/04/06 02:24:33;;;;;;;10.88;6.03;;;;;;;2.52;71.03;99618.27;1839944;75;21050;-89
2022/04/06 02:27:00;;;;;;;11.18;5.00;;;;;;;2.51;71.04;99622.98;1845063;77;21030;-89
2022/04/06 02:29:28;;;;;;;9.73;5.50;;;;;;;2.48;71.10;99621.16;1846398;77;21064;-89
2022/04/06 02:31:54;;;;;;;11.55;5.30;;;;;;;2.49;71.12;99624.64;1854987;77;22696;-89
2022/04/06 02:34:21;;;;;;;7.42;5.62;;;;;;;2.44;71.10;99624.86;1832776;77;22293;-79
2022/04/06 02:36:48;;;;;;;12.73;5.72;;;;;;;2.39;71.16;99624.69;1855411;77;21414;-79
2022/04/06 02:39:15;;;;;;;12.28;5.40;;;;;;;2.38;71.23;99626.80;1842922;77;21555;-80
2022/04/06 02:41:41;;;;;;;9.23;5.55;;;;;;;2.33;71.26;99615.38;1840401;77;21551;-80
2022/04/06 02:44:08;;;;;;;15.70;6.00;;;;;;;2.30;71.32;99616.54;1847201;77;22530;-80
2022/04/06 02:46:35;;;;;;;10.10;5.72;;;;;;;2.26;71.31;99614.66;1853671;77;21002;-80
2022/04/06 02:49:02;;;;;;;11.53;5.37;;;;;;;2.20;71.33;99615.71;1827762;77;21150;-79
2022/04/06 02:51:28;;;;;;;11.20;5.40;;;;;;;2.14;71.30;99619.83;1826105;77;21034;-80
2022/04/06 02:53:55;;;;;;;9.53;5.50;;;;;;;2.07;71.39;99620.39;1827238;77;21136;-79
2022/04/06 02:56:22;;;;;;;12.95;5.65;;;;;;;2.02;71.51;99623.62;1827125;77;22922;-90
2022/04/06 02:58:52;;;;;;;13.38;5.10;;;;;;;1.98;71.56;99623.03;1839331;77;21099;-90
2022/04/06 03:01:22;;;;;;;10.10;5.03;;;;;;;1.92;71.66;99624.97;1845478;77;21014;-80
2022/04/06 03:03:48;;;;;;;13.90;5.17;;;;;;;1.88;71.77;99621.35;1854911;77;21034;-89
2022/04/06 03:06:16;;;;;;;14.58;5.35;;;;;;;1.86;71.85;99620.41;1846993;77;21053;-89
2022/04/06 03:08:43;;;;;;;11.22;5.70;;;;;;;1.85;72.01;99625.11;1853431;77;21674;-89
2022/04/06 03:11:10;;;;;;;14.25;5.60;;;;;;;1.85;72.09;99630.30;1828833;77;20995;-89
2022/04/06 03:13:37;;;;;;;14.68;5.72;;;;;;;1.86;72.15;99629.48;1827150;77;21582;-79
2022/04/06 03:16:05;;;;;;;13.08;5.47;;;;;;;1.87;72.23;99625.17;1860813;77;21155;-79
2022/04/06 03:18:32;;;;;;;10.93;5.47;;;;;;;1.87;72.23;99626.05;1833723;77;21061;-80
2022/04/06 03:20:59;;;;;;;12.35;5.85;;;;;;;1.88;72.29;99629.14;1837290;77;21952;-80
2022/04/06 03:23:26;;;;;;;14.60;5.78;;;;;;;1.91;72.38;99633.55;1862228;77;21445;-80
2022/04/06 03:25:52;;;;;;;11.50;5.40;;;;;;;1.95;72.44;99636.75;1860490;77;21011;-79
2022/04/06 03:28:19;;;;;;;18.32;8.33;;;;;;;2.01;72.60;99639.62;1860827;77;21178;-89
2022/04/06 03:30:46;;;;;;;18.87;9.80;;;;;;;2.04;72.55;99646.22;1852393;77;21518;-89
2022/04/06 03:33:15;;;;;;;21.23;11.93;;;;;;;2.07;72.56;99651.55;1841545;77;22666;-89
2022/04/06 03:35:42;;;;;;;18.70;9.10;;;;;;;2.11;72.58;99653.44;1843788;77;21552;-79
2022/04/06 03:38:09;;;;;;;25.77;12.40;;;;;;;2.14;72.59;99645.78;1843776;77;21496;-80
2022/04/06 03:40:35;;;;;;;21.02;10.45;;;;;;;2.17;72.59;99648.91;1849512;75;21093;-79
2022/04/06 03:43:02;;;;;;;27.52;13.08;;;;;;;2.22;72.61;99649.11;1783856;78;21061;-91
2022/04/06 03:45:29;;;;;;;32.42;15.70;;;;;;;2.26;72.70;99649.28;1844960;75;22357;-80
2022/04/06 03:47:56;;;;;;;37.05;16.30;;;;;;;2.29;72.69;99648.12;1844022;75;21182;-79
2022/04/06 03:50:24;;;;;;;27.22;12.58;;;;;;;2.28;72.71;99645.03;1839370;75;21120;-80
2022/04/06 03:52:51;;;;;;;22.00;10.03;;;;;;;2.28;72.72;99651.52;1853723;75;21030;-90
2022/04/06 03:55:18;;;;;;;19.67;9.63;;;;;;;2.32;72.87;99652.12;1845602;75;21605;-87
2022/04/06 03:57:45;;;;;;;15.40;8.43;;;;;;;2.36;72.86;99656.14;1850013;75;21811;-85
2022/04/06 04:00:14;;;;;;;15.58;7.37;;;;;;;2.35;72.84;99653.97;1845193;75;21037;-84
2022/04/06 04:02:41;;;;;;;18.75;9.48;;;;;;;2.33;72.85;99656.50;1826497;75;21350;-76
2022/04/06 04:05:10;;;;;;;16.42;7.75;;;;;;;2.37;72.90;99655.34;1848172;75;21014;-84
2022/04/06 04:07:39;;;;;;;15.65;7.37;;;;;;;2.39;72.97;99658.87;1851292;77;21015;-85
2022/04/06 04:10:09;;;;;;;13.60;6.50;;;;;;;2.43;73.09;99657.75;1838882;75;21768;-78
2022/04/06 04:12:36;;;;;;;14.20;7.35;;;;;;;2.52;73.19;99662.01;1853166;75;21019;-78
2022/04/06 04:15:03;;;;;;;16.95;8.08;;;;;;;2.59;73.09;99670.95;1839801;75;21022;-84
2022/04/06 04:17:30;;;;;;;18.82;7.70;;;;;;;2.62;73.07;99674.06;1854133;77;21015;-78
2022/04/06 04:19:57;;;;;;;22.27;10.38;;;;;;;2.67;73.04;99669.95;1846252;76;21591;-85
2022/04/06 04:22:24;;;;;;;21.35;10.60;;;;;;;2.73;73.09;99672.35;1826403;77;22662;-78
2022/04/06 04:24:51;;;;;;;30.88;14.10;;;;;;;2.80;73.01;99671.31;1850980;75;21293;-76
2022/04/06 04:27:18;;;;;;;29.00;12.53;;;;;;;2.83;72.99;99670.98;1844447;77;21070;-89
2022/04/06 04:29:45;;;;;;;24.12;10.80;;;;;;;2.89;72.99;99672.55;1837623;77;21071;-77
2022/04/06 04:32:13;;;;;;;17.85;9.48;;;;;;;2.95;72.91;99664.09;1807345;78;21136;-85
2022/04/06 04:34:40;;;;;;;15.43;7.08;;;;;;;2.99;72.91;99669.88;1816135;78;21756;-79
2022/04/06 04:37:09;;;;;;;15.93;7.37;;;;;;;3.03;72.87;99667.86;1806329;77;21513;-86
2022/04/06 04:39:35;;;;;;;13.85;7.15;;;;;;;3.05;72.82;99666.20;1810249;78;21115;-79
2022/04/06 04:42:03;;;;;;;12.07;6.60;;;;;;;3.13;72.87;99664.31;1772170;80;21562;-88
2022/04/06 04:44:29;;;;;;;15.48;7.80;;;;;;;3.17;72.85;99664.88;1792465;79;21121;-85
2022/04/06 04:46:56;;;;;;;16.95;6.78;;;;;;;3.22;72.80;99669.85;1779825;79;21717;-82
2022/04/06 04:49:23;;;;;;;13.22;6.90;;;;;;;3.23;72.72;99666.02;1792494;77;21054;-87
2022/04/06 04:51:50;;;;;;;18.07;7.85;;;;;;;3.26;72.77;99662.20;1800158;79;21077;-81
2022/04/06 04:54:17;;;;;;;21.40;8.70;;;;;;;3.29;72.70;99657.13;1792770;79;21065;-81
2022/04/06 04:56:44;;;;;;;18.52;9.10;;;;;;;3.33;72.72;99660.73;1793804;79;21148;-87
2022/04/06 04:59:10;;;;;;;20.52;9.43;;;;;;;3.41;72.79;99664.91;1804453;77;21673;-78
2022/04/06 05:01:37;;;;;;;18.05;8.13;;;;;;;3.45;72.76;99662.48;1805387;77;21162;-78
2022/04/06 05:04:08;;;;;;;14.63;7.62;;;;;;;3.52;72.72;99664.88;1809074;78;21087;-79
2022/04/06 05:06:36;;;;;;;26.50;12.55;;;;;;;3.59;72.72;99668.16;1782202;79;21035;-87
2022/04/06 05:09:03;;;;;;;19.90;8.95;;;;;;;3.65;72.62;99677.48;1805235;79;21522;-86
2022/04/06 05:11:30;;;;;;;25.77;12.30;;;;;;;3.70;72.62;99673.34;1779118;79;21742;-87
2022/04/06 05:14:09;;;;;;;26.82;13.58;;;;;;;3.77;72.59;99670.52;1791741;79;21088;-85
2022/04/06 05:16:36;;;;;;;26.25;13.45;;;;;;;3.85;72.57;99668.20;1799586;79;21310;-80
2022/04/06 05:19:13;;;;;;;24.23;11.88;;;;;;;3.94;72.53;99670.22;1801494;79;21425;-88
2022/04/06 05:21:46;;;;;;;20.50;9.00;;;;;;;4.09;72.73;99675.94;1770279;79;21070;-85
2022/04/06 05:24:13;;;;;;;35.07;19.23;;;;;;;4.33;72.44;99678.90;1770632;80;21969;-87
2022/04/06 05:26:39;;;;;;;41.15;21.33;;;;;;;4.33;72.44;99678.90;1778166;79;21923;-79
2022/04/06 05:29:06;;;;;;;23.77;14.07;;;;;;;4.46;72.35;99678.03;1778406;79;21111;-79
2022/04/06 05:31:33;;;;;;;25.97;13.78;;;;;;;4.58;72.17;99677.95;1783055;79;21054;-87
2022/04/06 05:34:00;;;;;;;15.95;9.48;;;;;;;4.63;71.92;99681.17;1780976;80;21042;-88
2022/04/06 05:36:28;;;;;;;15.48;9.43;;;;;;;4.68;71.88;99678.73;1805022;79;22542;-78
2022/04/06 05:38:56;;;;;;;17.50;9.60;;;;;;;4.77;71.73;99675.53;1789784;80;21567;-79
2022/04/06 05:41:23;;;;;;;16.23;9.33;;;;;;;4.83;71.81;99676.59;1756289;80;21120;-88
2022/04/06 05:43:50;;;;;;;13.65;7.33;;;;;;;4.96;71.65;99679.59;1768166;79;21176;-80
2022/04/06 05:46:17;;;;;;;11.63;6.25;;;;;;;5.02;71.36;99683.67;1801374;79;21209;-88
2022/04/06 05:48:44;;;;;;;12.93;6.47;;;;;;;5.06;71.27;99675.97;1779679;80;21762;-79
2022/04/06 05:51:11;;;;;;;11.60;7.12;;;;;;;5.15;71.15;99682.32;1771462;80;21768;-79
2022/04/06 05:53:38;;;;;;;12.50;7.28;;;;;;;5.30;71.19;99679.28;1780205;80;21062;-79
2022/04/06 05:56:05;;;;;;;11.08;5.62;;;;;;;5.44;70.97;99677.53;1773814;80;21585;-79
2022/04/06 05:58:32;;;;;;;14.35;7.90;;;;;;;5.54;70.90;99683.02;1786847;80;21553;-88
2022/04/06 06:00:59;;;;;;;11.40;7.20;;;;;;;5.67;70.86;99683.81;1759274;80;21882;-88
2022/04/06 06:03:26;;;;;;;16.87;9.50;;;;;;;5.77;70.50;99683.20;1759942;80;22183;-88
2022/04/06 06:05:53;;;;;;;12.75;8.48;;;;;;;5.78;70.32;99690.21;1780230;80;21053;-89
2022/04/06 06:08:19;;;;;;;45.80;27.87;;;;;;;5.83;70.10;99692.93;1768842;80;21129;-89
2022/04/06 06:10:46;;;;;;;21.90;13.40;;;;;;;5.82;70.01;99691.18;1744020;80;21064;-79
2022/04/06 06:13:15;;;;;;;16.45;9.55;;;;;;;5.85;70.04;99693.85;1789608;80;21766;-88
2022/04/06 06:15:41;;;;;;;14.73;9.50;;;;;;;5.91;69.93;99694.44;1766407;80;21075;-88
2022/04/06 06:18:12;;;;;;;18.52;11.80;;;;;;;5.98;69.93;99699.02;1777110;80;21102;-88
2022/04/06 06:20:43;;;;;;;37.98;25.55;;;;;;;6.05;69.77;99687.02;1783738;80;21066;-88
2022/04/06 06:23:09;;;;;;;14.38;11.40;;;;;;;6.12;69.69;99691.53;1794244;79;21132;-88
2022/04/06 06:25:37;;;;;;;69.10;43.28;;;;;;;6.18;69.61;99694.33;1787808;79;21782;-88
2022/04/06 06:28:04;;;;;;;46.15;31.30;;;;;;;6.25;69.43;99684.90;1780066;80;21041;-88
2022/04/06 06:30:35;;;;;;;24.25;13.43;;;;;;;6.31;69.42;99690.30;1804020;78;21096;-88
2022/04/06 06:33:02;;;;;;;28.90;19.12;;;;;;;6.40;69.28;99691.80;1816388;78;21532;-88
2022/04/06 06:35:31;;;;;;;26.30;16.70;;;;;;;6.51;69.42;99690.34;1791047;78;21080;-79
2022/04/06 06:37:57;;;;;;;28.98;17.60;;;;;;;6.66;69.25;99692.88;1778700;79;21751;-79
2022/04/06 06:40:26;;;;;;;19.27;12.55;;;;;;;6.74;69.09;99689.59;1782006;78;21129;-79
2022/04/06 06:42:53;;;;;;;26.65;18.12;;;;;;;6.85;68.86;99692.88;1781319;80;21522;-79
2022/04/06 06:45:20;;;;;;;21.45;13.72;;;;;;;6.88;68.67;99691.64;1794907;78;21097;-80
2022/04/06 06:47:47;;;;;;;28.38;16.45;;;;;;;6.92;68.36;99690.42;1761214;80;21097;-80
2022/04/06 06:50:16;;;;;;;26.75;16.75;;;;;;;6.92;68.23;99693.04;1809347;78;21734;-80
2022/04/06 06:52:43;;;;;;;26.87;15.80;;;;;;;6.94;68.07;99686.55;1815122;78;21038;-79
2022/04/06 06:55:10;;;;;;;18.55;11.60;;;;;;;6.94;68.09;99683.49;1783479;80;21053;-79
2022/04/06 06:57:37;;;;;;;25.02;15.43;;;;;;;7.05;68.17;99685.05;1755554;80;21127;-79
2022/04/06 07:00:05;;;;;;;24.72;16.70;;;;;;;7.17;68.10;99682.71;1777982;80;21069;-81
2022/04/06 07:02:32;;;;;;;24.30;14.68;;;;;;;7.32;67.97;99679.94;1784161;79;21748;-80
2022/04/06 07:05:00;;;;;;;39.65;21.70;;;;;;;7.44;67.73;99681.95;1783530;80;21085;-79
2022/04/06 07:07:26;;;;;;;31.68;20.68;;;;;;;7.53;67.70;99683.02;1765344;80;21128;-80
2022/04/06 07:09:53;;;;;;;53.98;34.63;;;;;;;7.72;67.62;99685.56;1815792;78;21088;-87
2022/04/06 07:12:20;;;;;;;56.15;40.55;;;;;;;7.84;67.23;99686.65;1794480;78;21068;-88
2022/04/06 07:14:47;;;;;;;16.20;12.55;;;;;;;7.94;67.15;99689.91;1803852;78;21732;-87
2022/04/06 07:17:15;;;;;;;24.65;22.13;;;;;;;7.98;66.80;99685.18;1777952;80;21117;-87
2022/04/06 07:19:42;;;;;;;12.95;9.98;;;;;;;8.06;66.83;99683.57;1783766;80;21903;-88
2022/04/06 07:22:09;;;;;;;18.32;12.58;;;;;;;8.23;66.74;99677.31;1816063;78;21492;-88
2022/04/06 07:24:36;;;;;;;12.78;7.92;;;;;;;8.42;66.60;99671.98;1770099;80;21111;-88
2022/04/06 07:27:03;;;;;;;11.55;6.85;;;;;;;8.60;66.46;99668.78;1766672;80;21768;-88
2022/04/06 07:29:30;;;;;;;14.45;8.23;;;;;;;8.79;65.95;99662.06;1777146;80;21037;-87
2022/04/06 07:31:57;;;;;;;10.23;5.85;;;;;;;8.90;65.71;99656.98;1764400;80;21576;-88
2022/04/06 07:34:24;;;;;;;9.33;6.03;;;;;;;8.97;65.52;99655.30;1807137;79;21076;-88
2022/04/06 07:36:50;;;;;;;10.90;5.90;;;;;;;9.11;65.38;99656.39;1753254;80;21146;-79
2022/04/06 07:39:17;;;;;;;10.53;5.37;;;;;;;9.19;65.12;99644.66;1752939;80;21725;-80
2022/04/06 07:41:44;;;;;;;8.53;5.10;;;;;;;9.22;64.76;99653.91;1752789;80;21085;-79
2022/04/06 07:44:11;;;;;;;7.55;5.20;;;;;;;9.12;64.34;99660.75;1808219;78;21116;-79
2022/04/06 07:46:38;;;;;;;7.58;4.83;;;;;;;9.03;64.28;99664.16;1815707;78;21060;-88
2022/04/06 07:49:06;;;;;;;16.62;13.95;;;;;;;8.90;64.01;99663.10;1815862;79;21026;-79
2022/04/06 07:51:33;;;;;;;15.40;9.70;;;;;;;8.82;64.04;99671.71;1792952;78;21791;-88
2022/04/06 07:54:00;;;;;;;7.67;5.53;;;;;;;8.84;64.19;99668.27;1784617;80;21049;-79
2022/04/06 07:56:27;;;;;;;8.40;5.33;;;;;;;8.87;63.94;99658.23;1803765;78;21085;-80
2022/04/06 07:58:54;;;;;;;7.97;4.95;;;;;;;8.83;63.57;99653.38;1793867;78;21060;-87
2022/04/06 08:01:20;;;;;;;11.63;6.15;;;;;;;8.85;63.33;99652.09;1798371;78;21089;-79
2022/04/06 08:03:47;;;;;;;15.25;6.87;;;;;;;8.87;63.52;99652.98;1778769;79;21767;-79
2022/04/06 08:06:14;;;;;;;12.18;7.83;;;;;;;9.05;63.87;99653.25;1779859;79;21030;-79
2022/04/06 08:08:41;;;;;;;11.28;7.92;;;;;;;9.29;63.66;99659.66;1809615;78;21052;-89
2022/04/06 08:11:08;;;;;;;12.25;7.97;;;;;;;9.36;63.09;99658.87;1806835;78;21317;-88
2022/04/06 08:13:35;;;;;;;13.10;8.43;;;;;;;9.40;62.85;99660.67;1785179;79;21132;-79
2022/04/06 08:16:02;;;;;;;13.62;7.35;;;;;;;9.43;62.87;99652.84;1793798;78;21735;-88
2022/04/06 08:18:29;;;;;;;9.48;6.28;;;;;;;9.50;62.63;99657.75;1815285;78;21096;-80
2022/04/06 08:20:57;;;;;;;9.90;6.15;;;;;;;9.48;62.28;99652.48;1806766;78;21072;-80
2022/04/06 08:23:23;;;;;;;12.53;6.75;;;;;;;9.43;62.16;99648.91;1780022;79;21609;-88
2022/04/06 08:25:52;;;;;;;8.43;5.42;;;;;;;9.44;62.05;99650.68;1783569;79;21144;-85
2022/04/06 08:28:19;;;;;;;11.33;5.70;;;;;;;9.47;62.02;99657.70;1783431;79;22652;-79
2022/04/06 08:30:47;;;;;;;8.38;4.40;;;;;;;9.57;61.88;99658.69;1782627;79;21615;-87
2022/04/06 08:33:15;;;;;;;12.28;5.60;;;;;;;9.58;61.27;99655.21;1795797;79;21087;-79
2022/04/06 08:35:42;;;;;;;8.80;5.37;;;;;;;9.46;60.90;99659.45;1814858;78;21673;-79
2022/04/06 08:38:15;;;;;;;9.90;5.62;;;;;;;9.26;60.80;99660.95;1780970;80;21570;-89
2022/04/06 08:40:45;;;;;;;8.35;5.33;;;;;;;9.15;61.12;99668.69;1785030;79;21737;-79
2022/04/06 08:43:15;;;;;;;6.10;4.22;;;;;;;9.10;61.05;99669.95;1781347;77;21010;-79
2022/04/06 08:45:42;;;;;;;8.08;3.80;;;;;;;8.98;61.05;99667.14;1797439;78;21095;-88
2022/04/06 08:48:11;;;;;;;4.83;2.85;;;;;;;8.87;61.03;99668.73;1753911;80;21062;-88
2022/04/06 08:50:38;;;;;;;7.78;3.98;;;;;;;8.86;61.18;99673.11;1817004;79;21307;-89
2022/04/06 08:53:06;;;;;;;4.97;3.55;;;;;;;8.88;61.24;99675.77;1788460;80;21773;-88
2022/04/06 08:55:33;;;;;;;8.23;4.47;;;;;;;8.89;61.26;99674.88;1783490;78;20999;-87
2022/04/06 08:58:00;;;;;;;8.48;4.42;;;;;;;8.90;61.48;99668.78;1800831;79;21037;-87
2022/04/06 09:00:27;;;;;;;8.15;5.12;;;;;;;8.92;61.73;99671.88;1810962;78;21161;-86
2022/04/06 09:02:56;;;;;;;5.30;3.62;;;;;;;9.02;61.98;99668.07;1800380;78;21049;-78
2022/04/06 09:05:28;;;;;;;9.83;4.97;;;;;;;9.15;61.85;99668.69;1816593;78;22252;-87
2022/04/06 09:07:56;;;;;;;9.08;4.25;;;;;;;9.18;61.60;99659.55;1815461;78;21578;-79
2022/04/06 09:10:34;;;;;;;6.22;3.83;;;;;;;9.15;61.59;99661.68;1794337;78;21163;-88
2022/04/06 09:13:14;;;;;;;7.92;3.85;;;;;;;9.18;61.71;99657.33;1800265;79;21080;-79
2022/04/06 09:15:42;;;;;;;6.60;3.37;;;;;;;9.21;61.54;99658.69;1783130;79;21096;-79
2022/04/06 09:18:10;;;;;;;6.78;4.65;;;;;;;9.24;61.31;99662.69;1781295;79;21792;-79
2022/04/06 09:20:39;;;;;;;6.97;4.10;;;;;;;9.07;61.14;99664.64;1780872;78;21717;-79
2022/04/06 09:23:07;;;;;;;6.42;3.33;;;;;;;8.94;61.36;99653.53;1816396;78;21442;-88
2022/04/06 09:25:42;;;;;;;5.00;3.08;;;;;;;8.94;61.63;99657.03;1815352;77;21092;-87
2022/04/06 09:28:14;;;;;;;8.23;3.67;;;;;;;8.92;61.62;99643.00;1791783;79;21073;-87
2022/04/06 09:30:45;;;;;;;7.28;3.75;;;;;;;8.99;61.80;99632.17;1772867;79;21778;-79
2022/04/06 09:33:21;;;;;;;5.97;4.53;;;;;;;9.14;61.79;99639.34;1792170;79;21657;-79
2022/04/06 09:35:48;;;;;;;7.00;4.25;;;;;;;9.12;61.62;99632.78;1810126;79;21096;-79
2022/04/06 09:38:22;;;;;;;6.12;3.50;;;;;;;9.07;61.63;99621.33;1757971;79;21124;-79
2022/04/06 09:41:06;;;;;;;6.12;3.92;;;;;;;9.11;61.76;99618.32;1780042;79;21057;-79
2022/04/06 09:43:33;;;;;;;;;;;;;;;8.94;61.69;99606.29;1798474;79;21404;-79
2022/04/06 09:49:13;;;;;;;6.85;4.55;;;;;;;9.10;62.18;99613.92;1739500;82;21089;-80
2022/04/06 09:51:43;;;;;;;8.93;4.78;;;;;;;9.17;62.33;99617.08;1777773;79;21132;-80
2022/04/06 09:54:15;;;;;;;6.55;4.10;;;;;;;9.21;62.31;99608.37;1746957;80;21068;-80
2022/04/06 09:56:40;;;;;;;7.45;4.60;;;;;;;9.20;62.09;99607.06;1720553;82;21777;-80
2022/04/06 09:59:08;;;;;;;6.75;4.22;;;;;;;9.21;62.36;99603.11;1777914;79;21084;-80
2022/04/06 10:01:38;;;;;;;6.37;3.50;;;;;;;9.26;62.13;99601.44;1758988;81;21072;-80
2022/04/06 10:04:07;;;;;;;5.45;3.15;;;;;;;9.23;62.19;99591.33;1783655;80;21105;-80
2022/04/06 10:06:38;;;;;;;5.28;2.77;;;;;;;9.34;62.17;99594.52;1767441;80;21202;-80
2022/04/06 10:09:09;;;;;;;6.30;2.87;;;;;;;9.32;62.16;99583.55;1730054;81;22562;-80
2022/04/06 10:11:40;;;;;;;3.47;2.85;;;;;;;9.46;62.35;99588.95;1746604;80;21077;-80
2022/04/06 10:14:09;;;;;;;5.03;4.05;;;;;;;9.57;62.36;99582.50;1759116;80;21140;-79
2022/04/06 10:16:36;;;;;;;6.10;2.87;;;;;;;9.48;61.99;99583.31;1742702;81;21236;-88
2022/04/06 10:19:06;;;;;;;4.50;2.95;;;;;;;9.39;62.05;99582.77;1751133;81;21125;-80
2022/04/06 10:22:00;;;;;;;3.45;2.87;;;;;;;9.30;62.12;99581.34;1744035;81;22577;-89
2022/04/06 10:25:15;;;;;;;5.95;4.53;;;;;;;9.20;62.32;99579.05;1792886;79;21021;-88
2022/04/06 10:27:51;;;;;;;4.65;3.58;;;;;;;9.06;62.24;99578.00;1803471;79;21068;-88
2022/04/06 10:30:26;;;;;;;5.95;4.33;;;;;;;8.90;62.48;99579.56;1742846;81;21092;-88
2022/04/06 10:32:57;;;;;;;6.30;4.83;;;;;;;8.78;62.48;99567.58;1799693;79;21071;-79
2022/04/06 10:35:34;;;;;;;5.00;3.70;;;;;;;8.70;62.59;99576.22;1782695;78;23315;-88
2022/04/06 10:38:09;;;;;;;4.60;3.58;;;;;;;8.53;62.60;99572.49;1775985;79;21115;-79
2022/04/06 10:40:54;;;;;;;6.40;4.05;;;;;;;8.41;62.87;99564.41;1798504;79;21542;-79
2022/04/06 10:43:43;;;;;;;9.20;5.30;;;;;;;8.38;63.21;99557.38;1779327;79;21077;-87
2022/04/06 10:46:16;;;;;;;5.08;3.87;;;;;;;8.49;63.64;99546.65;1776911;79;21666;-79
2022/04/06 10:49:09;;;;;;;7.47;4.92;;;;;;;8.63;63.59;99542.89;1788084;79;21770;-89
2022/04/06 10:51:48;;;;;;;5.80;4.12;;;;;;;8.61;63.54;99536.75;1770532;79;21046;-88
2022/04/06 10:54:21;;;;;;;6.60;5.42;;;;;;;8.59;63.64;99533.66;1782772;79;21132;-79
2022/04/06 10:56:54;;;;;;;7.17;5.17;;;;;;;8.53;63.78;99529.22;1780592;78;21563;-79
2022/04/06 10:59:22;;;;;;;6.92;5.22;;;;;;;8.45;63.82;99529.55;1797907;78;21069;-79
2022/04/06 11:01:49;;;;;;;7.65;5.85;;;;;;;8.37;63.91;99517.59;1787306;80;21744;-88
2022/04/06 11:04:19;;;;;;;9.43;5.95;;;;;;;8.32;64.28;99514.91;1816967;78;21019;-88
2022/04/06 11:06:59;;;;;;;8.13;5.12;;;;;;;8.29;64.29;99514.86;1759619;80;21110;-88
2022/04/06 11:12:29;;;;;;;6.72;5.20;;;;;;;8.25;64.57;99516.98;1771957;79;21029;-89
2022/04/06 11:15:03;;;;;;;;;;;;;;;8.15;64.65;99516.42;1748384;80;22409;-79
2022/04/06 11:17:37;;;;;;;11.43;6.95;;;;;;;8.09;64.85;99517.61;1774462;78;20183;-79
2022/04/06 11:20:15;;;;;;;9.43;6.58;;;;;;;8.06;64.98;99516.28;1766253;79;21616;-79
2022/04/06 11:22:46;;;;;;;6.70;5.70;;;;;;;8.01;65.06;99509.64;1775479;79;21123;-79
2022/04/06 11:25:23;;;;;;;5.33;4.60;;;;;;;7.90;65.16;99502.95;1786721;80;21033;-88
2022/04/06 11:27:50;;;;;;;6.97;4.87;;;;;;;7.87;65.34;99506.81;1788286;80;21749;-87
2022/04/06 11:30:22;;;;;;;4.62;3.90;;;;;;;7.83;65.33;99501.08;1766073;80;21556;-88
2022/04/06 11:32:55;;;;;;;23.20;10.85;;;;;;;7.77;65.39;99510.12;1754637;80;21703;-88
2022/04/06 11:35:28;;;;;;;20.50;10.78;;;;;;;7.71;65.50;99512.66;1762423;80;21070;-79
2022/04/06 11:37:55;;;;;;;13.62;7.60;;;;;;;7.57;65.76;99505.89;1818555;77;21658;-80
2022/04/06 11:40:22;;;;;;;8.08;5.75;;;;;;;7.64;66.38;99479.36;1834054;77;21814;-90
2022/04/06 11:42:54;;;;;;;11.63;7.58;;;;;;;7.72;66.42;99489.55;1754656;77;21658;-79
2022/04/06 11:45:23;;;;;;;9.13;6.85;;;;;;;7.72;66.57;99484.31;1819288;77;21516;-78
2022/04/06 11:48:12;;;;;;;10.82;6.50;;;;;;;7.85;66.89;99467.92;1820589;77;21057;-91
2022/04/06 11:50:39;;;;;;;10.55;7.83;;;;;;;7.98;66.81;99475.11;1832262;77;21093;-90
2022/04/06 11:53:19;;;;;;;8.95;7.33;;;;;;;8.00;66.76;99481.69;1842029;77;21725;-80
2022/04/06 11:55:48;;;;;;;6.95;6.20;;;;;;;7.98;66.74;99474.23;1837201;77;21046;-89